sensor_id;sensor_type;location;lat;lon;timestamp;temperature;humidity
3198;DHT22;1611;49.394;11.136;2022-09-01T00:00:38;17.30;61.30
3198;DHT22;1611;49.394;11.136;2022-09-01T00:03:07;17.30;61.90
3198;DHT22;1611;49.394;11.136;2022-09-01T00:05:35;17.20;62.00
3198;DHT22;1611;49.394;11.136;2022-09-01T00:08:02;17.20;61.60
3198;DHT22;1611;49.394;11.136;2022-09-01T00:10:29;17.10;61.60
3198;DHT22;1611;49.394;11.136;2022-09-01T00:12:56;17.10;62.40
3198;DHT22;1611;49.394;11.136;2022-09-01T00:15:24;17.00;62.90
3198;DHT22;1611;49.394;11.136;2022-09-01T00:17:51;17.00;63.10
3198;DHT22;1611;49.394;11.136;2022-09-01T00:20:18;17.00;63.10
3198;DHT22;1611;49.394;11.136;2022-09-01T00:22:45;17.00;63.50
3198;DHT22;1611;49.394;11.136;2022-09-01T00:25:12;16.90;63.70
3198;DHT22;1611;49.394;11.136;2022-09-01T00:27:38;16.90;63.90
3198;DHT22;1611;49.394;11.136;2022-09-01T00:30:06;16.80;64.00
3198;DHT22;1611;49.394;11.136;2022-09-01T00:32:35;16.80;64.20
3198;DHT22;1611;49.394;11.136;2022-09-01T00:35:02;16.80;64.40
3198;DHT22;1611;49.394;11.136;2022-09-01T00:37:29;16.80;64.50
3198;DHT22;1611;49.394;11.136;2022-09-01T00:39:56;16.80;64.70
3198;DHT22;1611;49.394;11.136;2022-09-01T00:42:23;16.90;64.90
3198;DHT22;1611;49.394;11.136;2022-09-01T00:44:50;16.80;64.60
3198;DHT22;1611;49.394;11.136;2022-09-01T00:47:16;16.70;65.20
3198;DHT22;1611;49.394;11.136;2022-09-01T00:49:47;16.60;65.10
3198;DHT22;1611;49.394;11.136;2022-09-01T00:52:18;16.70;65.40
3198;DHT22;1611;49.394;11.136;2022-09-01T00:54:48;16.70;65.20
3198;DHT22;1611;49.394;11.136;2022-09-01T00:57:16;16.80;64.90
3198;DHT22;1611;49.394;11.136;2022-09-01T00:59:46;16.90;64.70
3198;DHT22;1611;49.394;11.136;2022-09-01T01:02:14;16.90;64.40
3198;DHT22;1611;49.394;11.136;2022-09-01T01:04:41;16.90;64.20
3198;DHT22;1611;49.394;11.136;2022-09-01T01:07:11;17.00;64.00
3198;DHT22;1611;49.394;11.136;2022-09-01T01:09:41;17.00;63.80
3198;DHT22;1611;49.394;11.136;2022-09-01T01:12:09;17.00;63.80
3198;DHT22;1611;49.394;11.136;2022-09-01T01:14:38;17.00;63.80
3198;DHT22;1611;49.394;11.136;2022-09-01T01:17:06;16.90;63.90
3198;DHT22;1611;49.394;11.136;2022-09-01T01:19:39;16.90;64.00
3198;DHT22;1611;49.394;11.136;2022-09-01T01:22:28;16.90;64.00
3198;DHT22;1611;49.394;11.136;2022-09-01T01:25:16;16.90;64.00
3198;DHT22;1611;49.394;11.136;2022-09-01T01:27:44;16.90;63.70
3198;DHT22;1611;49.394;11.136;2022-09-01T01:30:12;17.00;63.70
3198;DHT22;1611;49.394;11.136;2022-09-01T01:32:39;16.90;63.80
3198;DHT22;1611;49.394;11.136;2022-09-01T01:35:08;17.00;64.00
3198;DHT22;1611;49.394;11.136;2022-09-01T01:37:39;16.90;63.70
3198;DHT22;1611;49.394;11.136;2022-09-01T01:40:09;17.00;63.80
3198;DHT22;1611;49.394;11.136;2022-09-01T01:42:42;16.90;63.80
3198;DHT22;1611;49.394;11.136;2022-09-01T01:45:11;16.80;63.70
3198;DHT22;1611;49.394;11.136;2022-09-01T01:47:41;16.70;64.20
3198;DHT22;1611;49.394;11.136;2022-09-01T01:50:09;16.70;64.70
3198;DHT22;1611;49.394;11.136;2022-09-01T01:52:37;16.70;64.70
3198;DHT22;1611;49.394;11.136;2022-09-01T01:55:04;16.60;65.10
3198;DHT22;1611;49.394;11.136;2022-09-01T01:57:35;16.60;65.10
3198;DHT22;1611;49.394;11.136;2022-09-01T02:00:06;16.60;65.30
3198;DHT22;1611;49.394;11.136;2022-09-01T02:02:34;16.60;65.70
3198;DHT22;1611;49.394;11.136;2022-09-01T02:05:02;16.60;65.30
3198;DHT22;1611;49.394;11.136;2022-09-01T02:07:29;16.60;65.70
3198;DHT22;1611;49.394;11.136;2022-09-01T02:09:57;16.50;65.70
3198;DHT22;1611;49.394;11.136;2022-09-01T02:12:24;16.50;65.80
3198;DHT22;1611;49.394;11.136;2022-09-01T02:14:50;16.40;65.70
3198;DHT22;1611;49.394;11.136;2022-09-01T02:17:21;16.40;66.00
3198;DHT22;1611;49.394;11.136;2022-09-01T02:19:47;16.40;66.30
3198;DHT22;1611;49.394;11.136;2022-09-01T02:22:14;16.30;66.50
3198;DHT22;1611;49.394;11.136;2022-09-01T02:24:44;16.30;66.70
3198;DHT22;1611;49.394;11.136;2022-09-01T02:27:13;16.20;66.70
3198;DHT22;1611;49.394;11.136;2022-09-01T02:29:50;16.20;66.90
3198;DHT22;1611;49.394;11.136;2022-09-01T02:32:20;16.20;67.40
3198;DHT22;1611;49.394;11.136;2022-09-01T02:34:48;16.20;67.50
3198;DHT22;1611;49.394;11.136;2022-09-01T02:37:18;16.20;67.60
3198;DHT22;1611;49.394;11.136;2022-09-01T02:39:50;16.10;67.70
3198;DHT22;1611;49.394;11.136;2022-09-01T02:42:17;16.20;67.90
3198;DHT22;1611;49.394;11.136;2022-09-01T02:44:51;16.20;67.60
3198;DHT22;1611;49.394;11.136;2022-09-01T02:47:21;16.10;67.40
3198;DHT22;1611;49.394;11.136;2022-09-01T02:49:48;16.10;67.60
3198;DHT22;1611;49.394;11.136;2022-09-01T02:52:16;16.10;67.80
3198;DHT22;1611;49.394;11.136;2022-09-01T02:54:45;16.10;67.70
3198;DHT22;1611;49.394;11.136;2022-09-01T02:57:14;16.10;67.50
3198;DHT22;1611;49.394;11.136;2022-09-01T02:59:41;16.20;67.40
3198;DHT22;1611;49.394;11.136;2022-09-01T03:02:08;16.20;67.50
3198;DHT22;1611;49.394;11.136;2022-09-01T03:04:36;16.20;67.30
3198;DHT22;1611;49.394;11.136;2022-09-01T03:07:04;16.20;67.10
3198;DHT22;1611;49.394;11.136;2022-09-01T03:09:31;16.30;66.90
3198;DHT22;1611;49.394;11.136;2022-09-01T03:11:59;16.20;66.90
3198;DHT22;1611;49.394;11.136;2022-09-01T03:14:26;16.30;67.00
3198;DHT22;1611;49.394;11.136;2022-09-01T03:16:54;16.30;66.90
3198;DHT22;1611;49.394;11.136;2022-09-01T03:19:22;16.30;67.60
3198;DHT22;1611;49.394;11.136;2022-09-01T03:21:50;16.30;66.60
3198;DHT22;1611;49.394;11.136;2022-09-01T03:24:17;16.30;66.60
3198;DHT22;1611;49.394;11.136;2022-09-01T03:26:45;16.20;66.30
3198;DHT22;1611;49.394;11.136;2022-09-01T03:29:12;16.20;66.70
3198;DHT22;1611;49.394;11.136;2022-09-01T03:31:40;16.20;66.60
3198;DHT22;1611;49.394;11.136;2022-09-01T03:34:07;16.10;66.70
3198;DHT22;1611;49.394;11.136;2022-09-01T03:36:35;16.10;67.00
3198;DHT22;1611;49.394;11.136;2022-09-01T03:39:03;16.00;67.50
3198;DHT22;1611;49.394;11.136;2022-09-01T03:41:31;15.90;68.00
3198;DHT22;1611;49.394;11.136;2022-09-01T03:43:58;15.80;67.90
3198;DHT22;1611;49.394;11.136;2022-09-01T03:46:26;15.70;68.40
3198;DHT22;1611;49.394;11.136;2022-09-01T03:48:57;15.60;68.60
3198;DHT22;1611;49.394;11.136;2022-09-01T03:51:27;15.60;68.70
3198;DHT22;1611;49.394;11.136;2022-09-01T03:53:56;15.50;69.00
3198;DHT22;1611;49.394;11.136;2022-09-01T03:56:27;15.50;69.00
3198;DHT22;1611;49.394;11.136;2022-09-01T03:58:57;15.40;68.90
3198;DHT22;1611;49.394;11.136;2022-09-01T04:01:24;15.40;69.20
3198;DHT22;1611;49.394;11.136;2022-09-01T04:03:51;15.30;69.40
3198;DHT22;1611;49.394;11.136;2022-09-01T04:06:18;15.30;69.40
3198;DHT22;1611;49.394;11.136;2022-09-01T04:08:46;15.30;69.60
3198;DHT22;1611;49.394;11.136;2022-09-01T04:11:15;15.20;69.50
3198;DHT22;1611;49.394;11.136;2022-09-01T04:13:45;15.10;69.40
3198;DHT22;1611;49.394;11.136;2022-09-01T04:16:20;15.20;69.90
3198;DHT22;1611;49.394;11.136;2022-09-01T04:19:05;15.10;69.80
3198;DHT22;1611;49.394;11.136;2022-09-01T04:21:41;15.10;69.80
3198;DHT22;1611;49.394;11.136;2022-09-01T04:24:08;15.00;69.90
3198;DHT22;1611;49.394;11.136;2022-09-01T04:26:37;15.00;69.90
3198;DHT22;1611;49.394;11.136;2022-09-01T04:29:06;15.00;69.60
3198;DHT22;1611;49.394;11.136;2022-09-01T04:31:36;15.00;69.80
3198;DHT22;1611;49.394;11.136;2022-09-01T04:34:05;14.90;70.40
3198;DHT22;1611;49.394;11.136;2022-09-01T04:36:39;14.90;70.60
3198;DHT22;1611;49.394;11.136;2022-09-01T04:39:07;14.90;70.50
3198;DHT22;1611;49.394;11.136;2022-09-01T04:41:36;14.90;70.50
3198;DHT22;1611;49.394;11.136;2022-09-01T04:44:04;14.90;70.60
3198;DHT22;1611;49.394;11.136;2022-09-01T04:46:36;14.90;70.60
3198;DHT22;1611;49.394;11.136;2022-09-01T04:49:04;14.80;70.90
3198;DHT22;1611;49.394;11.136;2022-09-01T04:51:37;14.80;70.90
3198;DHT22;1611;49.394;11.136;2022-09-01T04:54:05;14.80;71.00
3198;DHT22;1611;49.394;11.136;2022-09-01T04:56:39;14.90;70.70
3198;DHT22;1611;49.394;11.136;2022-09-01T04:59:07;14.90;70.40
3198;DHT22;1611;49.394;11.136;2022-09-01T05:01:37;14.90;69.90
3198;DHT22;1611;49.394;11.136;2022-09-01T05:04:09;14.90;70.00
3198;DHT22;1611;49.394;11.136;2022-09-01T05:06:39;14.90;69.90
3198;DHT22;1611;49.394;11.136;2022-09-01T05:09:07;15.00;69.80
3198;DHT22;1611;49.394;11.136;2022-09-01T05:11:36;15.00;69.60
3198;DHT22;1611;49.394;11.136;2022-09-01T05:14:04;15.10;69.30
3198;DHT22;1611;49.394;11.136;2022-09-01T05:16:32;15.00;69.20
3198;DHT22;1611;49.394;11.136;2022-09-01T05:19:01;15.10;69.30
3198;DHT22;1611;49.394;11.136;2022-09-01T05:21:28;15.10;69.20
3198;DHT22;1611;49.394;11.136;2022-09-01T05:23:57;15.10;69.00
3198;DHT22;1611;49.394;11.136;2022-09-01T05:26:27;15.20;69.00
3198;DHT22;1611;49.394;11.136;2022-09-01T05:28:57;15.20;68.60
3198;DHT22;1611;49.394;11.136;2022-09-01T05:31:27;15.20;68.20
3198;DHT22;1611;49.394;11.136;2022-09-01T05:34:00;15.20;68.30
3198;DHT22;1611;49.394;11.136;2022-09-01T05:36:27;15.20;68.00
3198;DHT22;1611;49.394;11.136;2022-09-01T05:38:56;15.30;67.90
3198;DHT22;1611;49.394;11.136;2022-09-01T05:41:23;15.30;67.90
3198;DHT22;1611;49.394;11.136;2022-09-01T05:43:50;15.30;67.90
3198;DHT22;1611;49.394;11.136;2022-09-01T05:46:20;15.30;67.90
3198;DHT22;1611;49.394;11.136;2022-09-01T05:48:50;15.40;67.70
3198;DHT22;1611;49.394;11.136;2022-09-01T05:51:21;15.40;67.60
3198;DHT22;1611;49.394;11.136;2022-09-01T05:53:51;15.40;67.40
3198;DHT22;1611;49.394;11.136;2022-09-01T05:56:20;15.40;67.30
3198;DHT22;1611;49.394;11.136;2022-09-01T05:58:48;15.50;67.20
3198;DHT22;1611;49.394;11.136;2022-09-01T06:01:17;15.50;67.20
3198;DHT22;1611;49.394;11.136;2022-09-01T06:03:47;15.50;67.00
3198;DHT22;1611;49.394;11.136;2022-09-01T06:06:14;15.50;67.10
3198;DHT22;1611;49.394;11.136;2022-09-01T06:08:43;15.60;66.50
3198;DHT22;1611;49.394;11.136;2022-09-01T06:11:13;15.60;66.40
3198;DHT22;1611;49.394;11.136;2022-09-01T06:13:42;15.70;66.10
3198;DHT22;1611;49.394;11.136;2022-09-01T06:16:09;15.80;65.20
3198;DHT22;1611;49.394;11.136;2022-09-01T06:18:36;15.90;64.80
3198;DHT22;1611;49.394;11.136;2022-09-01T06:21:04;15.80;64.50
3198;DHT22;1611;49.394;11.136;2022-09-01T06:23:32;15.90;64.80
3198;DHT22;1611;49.394;11.136;2022-09-01T06:26:01;16.00;64.20
3198;DHT22;1611;49.394;11.136;2022-09-01T06:28:28;16.00;64.10
3198;DHT22;1611;49.394;11.136;2022-09-01T06:30:55;16.20;63.90
3198;DHT22;1611;49.394;11.136;2022-09-01T06:33:23;16.30;63.70
3198;DHT22;1611;49.394;11.136;2022-09-01T06:35:51;16.30;62.70
3198;DHT22;1611;49.394;11.136;2022-09-01T06:38:20;16.30;62.30
3198;DHT22;1611;49.394;11.136;2022-09-01T06:40:47;16.40;62.40
3198;DHT22;1611;49.394;11.136;2022-09-01T06:43:15;16.50;61.00
3198;DHT22;1611;49.394;11.136;2022-09-01T06:45:43;16.60;60.60
3198;DHT22;1611;49.394;11.136;2022-09-01T06:48:11;16.70;59.70
3198;DHT22;1611;49.394;11.136;2022-09-01T06:50:40;16.80;59.30
3198;DHT22;1611;49.394;11.136;2022-09-01T06:53:07;16.90;58.70
3198;DHT22;1611;49.394;11.136;2022-09-01T06:55:35;17.10;58.00
3198;DHT22;1611;49.394;11.136;2022-09-01T06:58:03;17.10;58.10
3198;DHT22;1611;49.394;11.136;2022-09-01T07:00:33;17.20;57.00
3198;DHT22;1611;49.394;11.136;2022-09-01T07:03:02;17.20;57.10
3198;DHT22;1611;49.394;11.136;2022-09-01T07:05:33;17.30;56.70
3198;DHT22;1611;49.394;11.136;2022-09-01T07:08:02;17.50;55.80
3198;DHT22;1611;49.394;11.136;2022-09-01T07:10:31;17.70;55.40
3198;DHT22;1611;49.394;11.136;2022-09-01T07:12:58;17.90;54.20
3198;DHT22;1611;49.394;11.136;2022-09-01T07:15:26;18.00;54.10
3198;DHT22;1611;49.394;11.136;2022-09-01T07:17:57;18.20;53.00
3198;DHT22;1611;49.394;11.136;2022-09-01T07:20:25;18.40;52.00
3198;DHT22;1611;49.394;11.136;2022-09-01T07:22:54;18.40;50.80
3198;DHT22;1611;49.394;11.136;2022-09-01T07:25:21;18.40;51.70
3198;DHT22;1611;49.394;11.136;2022-09-01T07:27:48;18.40;51.90
3198;DHT22;1611;49.394;11.136;2022-09-01T07:30:16;18.50;52.00
3198;DHT22;1611;49.394;11.136;2022-09-01T07:32:43;18.40;51.60
3198;DHT22;1611;49.394;11.136;2022-09-01T07:35:14;18.50;52.10
3198;DHT22;1611;49.394;11.136;2022-09-01T07:37:41;18.50;52.10
3198;DHT22;1611;49.394;11.136;2022-09-01T07:40:10;18.50;51.20
3198;DHT22;1611;49.394;11.136;2022-09-01T07:42:38;18.60;51.30
3198;DHT22;1611;49.394;11.136;2022-09-01T07:45:06;18.60;50.30
3198;DHT22;1611;49.394;11.136;2022-09-01T07:47:34;18.60;50.80
3198;DHT22;1611;49.394;11.136;2022-09-01T07:50:03;18.60;51.70
3198;DHT22;1611;49.394;11.136;2022-09-01T07:52:34;18.60;51.00
3198;DHT22;1611;49.394;11.136;2022-09-01T07:55:07;18.60;51.00
3198;DHT22;1611;49.394;11.136;2022-09-01T07:57:36;18.60;51.30
3198;DHT22;1611;49.394;11.136;2022-09-01T08:00:06;18.50;51.40
3198;DHT22;1611;49.394;11.136;2022-09-01T08:02:33;18.50;51.20
3198;DHT22;1611;49.394;11.136;2022-09-01T08:05:00;18.60;51.40
3198;DHT22;1611;49.394;11.136;2022-09-01T08:07:31;18.60;51.20
3198;DHT22;1611;49.394;11.136;2022-09-01T08:10:00;18.80;51.50
3198;DHT22;1611;49.394;11.136;2022-09-01T08:12:27;18.70;50.90
3198;DHT22;1611;49.394;11.136;2022-09-01T08:14:53;18.80;50.20
3198;DHT22;1611;49.394;11.136;2022-09-01T08:17:20;18.90;49.30
3198;DHT22;1611;49.394;11.136;2022-09-01T08:19:47;19.00;48.70
3198;DHT22;1611;49.394;11.136;2022-09-01T08:22:14;19.10;48.00
3198;DHT22;1611;49.394;11.136;2022-09-01T08:24:41;19.30;48.50
3198;DHT22;1611;49.394;11.136;2022-09-01T08:27:09;19.40;48.30
3198;DHT22;1611;49.394;11.136;2022-09-01T08:29:36;19.60;47.70
3198;DHT22;1611;49.394;11.136;2022-09-01T08:32:03;19.70;46.70
3198;DHT22;1611;49.394;11.136;2022-09-01T08:34:31;19.90;46.30
3198;DHT22;1611;49.394;11.136;2022-09-01T08:36:58;20.00;45.20
3198;DHT22;1611;49.394;11.136;2022-09-01T08:39:25;20.10;43.90
3198;DHT22;1611;49.394;11.136;2022-09-01T08:42:00;20.20;43.80
3198;DHT22;1611;49.394;11.136;2022-09-01T08:44:35;20.30;43.90
3198;DHT22;1611;49.394;11.136;2022-09-01T08:47:09;20.50;42.20
3198;DHT22;1611;49.394;11.136;2022-09-01T08:49:37;20.60;41.20
3198;DHT22;1611;49.394;11.136;2022-09-01T08:52:10;20.60;40.00
3198;DHT22;1611;49.394;11.136;2022-09-01T08:54:44;20.80;41.50
3198;DHT22;1611;49.394;11.136;2022-09-01T08:57:15;20.80;40.20
3198;DHT22;1611;49.394;11.136;2022-09-01T08:59:44;20.90;41.60
3198;DHT22;1611;49.394;11.136;2022-09-01T09:02:23;20.80;41.60
3198;DHT22;1611;49.394;11.136;2022-09-01T09:05:00;21.00;41.80
3198;DHT22;1611;49.394;11.136;2022-09-01T09:07:37;21.20;39.40
3198;DHT22;1611;49.394;11.136;2022-09-01T09:10:13;21.30;37.50
3198;DHT22;1611;49.394;11.136;2022-09-01T09:12:52;21.30;38.30
3198;DHT22;1611;49.394;11.136;2022-09-01T09:15:32;21.30;38.40
3198;DHT22;1611;49.394;11.136;2022-09-01T09:18:11;21.50;39.90
3198;DHT22;1611;49.394;11.136;2022-09-01T09:20:39;21.80;38.70
3198;DHT22;1611;49.394;11.136;2022-09-01T09:23:14;22.00;35.20
3198;DHT22;1611;49.394;11.136;2022-09-01T09:25:42;22.10;35.80
3198;DHT22;1611;49.394;11.136;2022-09-01T09:28:09;22.10;35.10
3198;DHT22;1611;49.394;11.136;2022-09-01T09:30:37;22.20;34.70
3198;DHT22;1611;49.394;11.136;2022-09-01T09:33:05;22.30;34.30
3198;DHT22;1611;49.394;11.136;2022-09-01T09:35:38;22.30;34.20
3198;DHT22;1611;49.394;11.136;2022-09-01T09:38:19;22.50;35.00
3198;DHT22;1611;49.394;11.136;2022-09-01T09:40:58;22.50;34.10
3198;DHT22;1611;49.394;11.136;2022-09-01T09:43:27;22.50;32.30
3198;DHT22;1611;49.394;11.136;2022-09-01T09:46:21;22.50;33.30
3198;DHT22;1611;49.394;11.136;2022-09-01T09:48:51;22.60;34.30
3198;DHT22;1611;49.394;11.136;2022-09-01T09:51:31;22.50;32.70
3198;DHT22;1611;49.394;11.136;2022-09-01T09:54:10;22.40;32.70
3198;DHT22;1611;49.394;11.136;2022-09-01T09:56:38;22.40;33.10
3198;DHT22;1611;49.394;11.136;2022-09-01T09:59:20;22.20;33.80
3198;DHT22;1611;49.394;11.136;2022-09-01T10:01:50;22.30;34.20
3198;DHT22;1611;49.394;11.136;2022-09-01T10:04:33;22.40;34.00
3198;DHT22;1611;49.394;11.136;2022-09-01T10:07:00;22.50;33.10
3198;DHT22;1611;49.394;11.136;2022-09-01T10:09:35;22.60;33.40
3198;DHT22;1611;49.394;11.136;2022-09-01T10:12:03;22.50;32.60
3198;DHT22;1611;49.394;11.136;2022-09-01T10:14:37;22.50;33.60
3198;DHT22;1611;49.394;11.136;2022-09-01T10:17:11;22.50;33.40
3198;DHT22;1611;49.394;11.136;2022-09-01T10:19:45;22.60;32.10
3198;DHT22;1611;49.394;11.136;2022-09-01T10:22:13;22.50;30.30
3198;DHT22;1611;49.394;11.136;2022-09-01T10:24:40;22.30;30.90
3198;DHT22;1611;49.394;11.136;2022-09-01T10:27:11;22.40;31.50
3198;DHT22;1611;49.394;11.136;2022-09-01T10:29:45;22.60;31.70
3198;DHT22;1611;49.394;11.136;2022-09-01T10:32:17;22.60;31.10
3198;DHT22;1611;49.394;11.136;2022-09-01T10:34:45;22.50;32.30
3198;DHT22;1611;49.394;11.136;2022-09-01T10:37:13;22.60;32.80
3198;DHT22;1611;49.394;11.136;2022-09-01T10:40:11;22.80;32.30
3198;DHT22;1611;49.394;11.136;2022-09-01T10:42:40;22.90;30.10
3198;DHT22;1611;49.394;11.136;2022-09-01T10:45:17;23.00;31.20
3198;DHT22;1611;49.394;11.136;2022-09-01T10:47:46;23.00;30.90
3198;DHT22;1611;49.394;11.136;2022-09-01T10:50:26;22.90;30.40
3198;DHT22;1611;49.394;11.136;2022-09-01T10:53:02;22.80;30.90
3198;DHT22;1611;49.394;11.136;2022-09-01T10:55:39;22.80;31.50
3198;DHT22;1611;49.394;11.136;2022-09-01T11:01:01;22.70;31.00
3198;DHT22;1611;49.394;11.136;2022-09-01T11:09:30;22.80;30.40
3198;DHT22;1611;49.394;11.136;2022-09-01T11:12:27;22.90;30.20
3198;DHT22;1611;49.394;11.136;2022-09-01T11:15:03;23.10;29.30
3198;DHT22;1611;49.394;11.136;2022-09-01T11:17:31;23.30;28.90
3198;DHT22;1611;49.394;11.136;2022-09-01T11:20:07;23.30;28.50
3198;DHT22;1611;49.394;11.136;2022-09-01T11:22:38;23.40;28.60
3198;DHT22;1611;49.394;11.136;2022-09-01T11:25:32;23.30;28.80
3198;DHT22;1611;49.394;11.136;2022-09-01T11:28:08;23.20;29.50
3198;DHT22;1611;49.394;11.136;2022-09-01T11:30:40;23.10;29.30
3198;DHT22;1611;49.394;11.136;2022-09-01T11:36:06;23.50;28.10
3198;DHT22;1611;49.394;11.136;2022-09-01T11:38:41;23.60;27.30
3198;DHT22;1611;49.394;11.136;2022-09-01T11:41:19;23.90;26.50
3198;DHT22;1611;49.394;11.136;2022-09-01T11:43:49;24.30;26.70
3198;DHT22;1611;49.394;11.136;2022-09-01T11:46:21;24.60;26.10
3198;DHT22;1611;49.394;11.136;2022-09-01T11:48:50;24.50;26.20
3198;DHT22;1611;49.394;11.136;2022-09-01T11:51:19;24.40;26.50
3198;DHT22;1611;49.394;11.136;2022-09-01T11:53:46;24.30;26.40
3198;DHT22;1611;49.394;11.136;2022-09-01T11:56:16;24.30;26.80
3198;DHT22;1611;49.394;11.136;2022-09-01T11:58:44;24.20;26.60
3198;DHT22;1611;49.394;11.136;2022-09-01T12:01:15;24.20;27.00
3198;DHT22;1611;49.394;11.136;2022-09-01T12:03:43;24.20;25.90
3198;DHT22;1611;49.394;11.136;2022-09-01T12:06:20;24.30;26.30
3198;DHT22;1611;49.394;11.136;2022-09-01T12:08:54;24.00;26.80
3198;DHT22;1611;49.394;11.136;2022-09-01T12:11:23;24.00;27.90
3198;DHT22;1611;49.394;11.136;2022-09-01T12:13:56;24.10;26.00
3198;DHT22;1611;49.394;11.136;2022-09-01T12:16:23;24.40;25.00
3198;DHT22;1611;49.394;11.136;2022-09-01T12:18:52;24.70;24.40
3198;DHT22;1611;49.394;11.136;2022-09-01T12:21:24;24.80;25.40
3198;DHT22;1611;49.394;11.136;2022-09-01T12:23:53;24.70;25.40
3198;DHT22;1611;49.394;11.136;2022-09-01T12:26:28;24.70;24.20
3198;DHT22;1611;49.394;11.136;2022-09-01T12:28:56;24.90;23.40
3198;DHT22;1611;49.394;11.136;2022-09-01T12:31:25;24.70;22.60
3198;DHT22;1611;49.394;11.136;2022-09-01T12:33:53;24.80;24.40
3198;DHT22;1611;49.394;11.136;2022-09-01T12:36:24;24.90;24.00
3198;DHT22;1611;49.394;11.136;2022-09-01T12:38:52;25.00;22.10
3198;DHT22;1611;49.394;11.136;2022-09-01T12:41:32;25.10;20.40
3198;DHT22;1611;49.394;11.136;2022-09-01T12:44:26;25.00;20.30
3198;DHT22;1611;49.394;11.136;2022-09-01T12:46:54;24.70;21.50
3198;DHT22;1611;49.394;11.136;2022-09-01T12:49:23;25.00;21.90
3198;DHT22;1611;49.394;11.136;2022-09-01T12:52:10;25.10;21.90
3198;DHT22;1611;49.394;11.136;2022-09-01T12:54:37;25.00;21.10
3198;DHT22;1611;49.394;11.136;2022-09-01T12:57:05;25.30;22.10
3198;DHT22;1611;49.394;11.136;2022-09-01T12:59:32;25.50;19.90
3198;DHT22;1611;49.394;11.136;2022-09-01T13:02:26;25.70;20.00
3198;DHT22;1611;49.394;11.136;2022-09-01T13:04:53;25.30;20.30
3198;DHT22;1611;49.394;11.136;2022-09-01T13:07:21;25.30;20.30
3198;DHT22;1611;49.394;11.136;2022-09-01T13:09:48;25.50;19.30
3198;DHT22;1611;49.394;11.136;2022-09-01T13:12:16;25.80;19.30
3198;DHT22;1611;49.394;11.136;2022-09-01T13:14:44;25.90;20.80
3198;DHT22;1611;49.394;11.136;2022-09-01T13:17:11;25.60;20.00
3198;DHT22;1611;49.394;11.136;2022-09-01T13:19:39;25.50;21.20
3198;DHT22;1611;49.394;11.136;2022-09-01T13:22:05;25.50;20.90
3198;DHT22;1611;49.394;11.136;2022-09-01T13:24:34;25.70;19.90
3198;DHT22;1611;49.394;11.136;2022-09-01T13:27:00;25.90;18.70
3198;DHT22;1611;49.394;11.136;2022-09-01T13:29:27;25.80;19.80
3198;DHT22;1611;49.394;11.136;2022-09-01T13:31:54;26.00;18.90
3198;DHT22;1611;49.394;11.136;2022-09-01T13:34:21;26.20;19.60
3198;DHT22;1611;49.394;11.136;2022-09-01T13:36:48;26.50;19.70
3198;DHT22;1611;49.394;11.136;2022-09-01T13:39:14;26.50;17.20
3198;DHT22;1611;49.394;11.136;2022-09-01T13:41:43;26.50;17.10
3198;DHT22;1611;49.394;11.136;2022-09-01T13:44:09;26.60;17.60
3198;DHT22;1611;49.394;11.136;2022-09-01T13:46:36;26.70;17.90
3198;DHT22;1611;49.394;11.136;2022-09-01T13:49:03;26.70;18.70
3198;DHT22;1611;49.394;11.136;2022-09-01T13:51:30;26.20;17.50
3198;DHT22;1611;49.394;11.136;2022-09-01T13:53:56;26.00;17.30
3198;DHT22;1611;49.394;11.136;2022-09-01T13:56:23;26.00;17.40
3198;DHT22;1611;49.394;11.136;2022-09-01T13:58:51;26.20;17.70
3198;DHT22;1611;49.394;11.136;2022-09-01T14:01:18;26.20;18.20
3198;DHT22;1611;49.394;11.136;2022-09-01T14:03:45;25.90;17.50
3198;DHT22;1611;49.394;11.136;2022-09-01T14:06:13;25.70;18.10
3198;DHT22;1611;49.394;11.136;2022-09-01T14:08:40;25.60;18.80
3198;DHT22;1611;49.394;11.136;2022-09-01T14:11:07;25.30;18.50
3198;DHT22;1611;49.394;11.136;2022-09-01T14:13:34;25.40;19.00
3198;DHT22;1611;49.394;11.136;2022-09-01T14:16:09;25.20;19.30
3198;DHT22;1611;49.394;11.136;2022-09-01T14:18:36;25.20;20.00
3198;DHT22;1611;49.394;11.136;2022-09-01T14:21:03;25.30;19.80
3198;DHT22;1611;49.394;11.136;2022-09-01T14:23:30;25.00;20.50
3198;DHT22;1611;49.394;11.136;2022-09-01T14:25:57;24.90;20.10
3198;DHT22;1611;49.394;11.136;2022-09-01T14:28:24;24.70;21.10
3198;DHT22;1611;49.394;11.136;2022-09-01T14:30:51;24.40;20.40
3198;DHT22;1611;49.394;11.136;2022-09-01T14:33:19;24.20;21.30
3198;DHT22;1611;49.394;11.136;2022-09-01T14:35:49;24.20;22.60
3198;DHT22;1611;49.394;11.136;2022-09-01T14:38:15;24.10;22.80
3198;DHT22;1611;49.394;11.136;2022-09-01T14:40:46;24.10;22.80
3198;DHT22;1611;49.394;11.136;2022-09-01T14:43:13;24.10;21.50
3198;DHT22;1611;49.394;11.136;2022-09-01T14:45:42;24.10;21.90
3198;DHT22;1611;49.394;11.136;2022-09-01T14:48:12;24.10;21.50
3198;DHT22;1611;49.394;11.136;2022-09-01T14:50:43;24.30;20.90
3198;DHT22;1611;49.394;11.136;2022-09-01T14:53:10;24.90;22.20
3198;DHT22;1611;49.394;11.136;2022-09-01T14:55:37;25.20;22.80
3198;DHT22;1611;49.394;11.136;2022-09-01T14:58:04;25.00;20.00
3198;DHT22;1611;49.394;11.136;2022-09-01T15:00:32;24.90;20.90
3198;DHT22;1611;49.394;11.136;2022-09-01T15:03:00;24.70;21.80
3198;DHT22;1611;49.394;11.136;2022-09-01T15:05:27;24.20;20.80
3198;DHT22;1611;49.394;11.136;2022-09-01T15:07:55;23.90;22.10
3198;DHT22;1611;49.394;11.136;2022-09-01T15:10:24;23.70;22.00
3198;DHT22;1611;49.394;11.136;2022-09-01T15:12:53;23.40;22.80
3198;DHT22;1611;49.394;11.136;2022-09-01T15:15:20;23.20;23.30
3198;DHT22;1611;49.394;11.136;2022-09-01T15:17:47;23.00;23.30
3198;DHT22;1611;49.394;11.136;2022-09-01T15:20:14;22.80;24.00
3198;DHT22;1611;49.394;11.136;2022-09-01T15:23:00;22.60;24.60
3198;DHT22;1611;49.394;11.136;2022-09-01T15:25:27;22.40;25.70
3198;DHT22;1611;49.394;11.136;2022-09-01T15:27:54;22.30;26.00
3198;DHT22;1611;49.394;11.136;2022-09-01T15:30:21;22.20;26.20
3198;DHT22;1611;49.394;11.136;2022-09-01T15:32:49;22.10;27.20
3198;DHT22;1611;49.394;11.136;2022-09-01T15:35:18;22.00;26.90
3198;DHT22;1611;49.394;11.136;2022-09-01T15:37:46;22.00;27.20
3198;DHT22;1611;49.394;11.136;2022-09-01T15:40:15;22.00;27.90
3198;DHT22;1611;49.394;11.136;2022-09-01T15:42:42;22.00;28.60
3198;DHT22;1611;49.394;11.136;2022-09-01T15:45:11;22.00;27.10
3198;DHT22;1611;49.394;11.136;2022-09-01T15:47:39;21.90;27.30
3198;DHT22;1611;49.394;11.136;2022-09-01T15:50:08;21.80;26.80
3198;DHT22;1611;49.394;11.136;2022-09-01T15:52:46;21.80;27.60
3198;DHT22;1611;49.394;11.136;2022-09-01T15:55:16;21.90;27.20
3198;DHT22;1611;49.394;11.136;2022-09-01T15:57:42;21.90;27.50
3198;DHT22;1611;49.394;11.136;2022-09-01T16:00:10;21.90;28.30
3198;DHT22;1611;49.394;11.136;2022-09-01T16:02:37;22.00;28.40
3198;DHT22;1611;49.394;11.136;2022-09-01T16:05:05;22.10;26.50
3198;DHT22;1611;49.394;11.136;2022-09-01T16:07:32;22.20;26.20
3198;DHT22;1611;49.394;11.136;2022-09-01T16:09:59;22.20;25.90
3198;DHT22;1611;49.394;11.136;2022-09-01T16:12:27;22.10;26.10